Time;durP1;ratioP1;P1;durP2;ratioP2;P2;SDS_P1;SDS_P2;PMS_P1;PMS_P2;Temp;Humidity;BMP_temperature;BMP_pressure;BME280_temperature;BME280_humidity;BME280_pressure;Samples;Min_cycle;Max_cycle;Signal;HPM_P1;HPM_P2
2022/11/11 00:01:33;;;;;;;13.60;5.28;;;;;;;;;;5033415;28;20053;-51
2022/11/11 00:04:03;;;;;;;10.52;5.03;;;;;;;;;;5034008;28;20053;-50
2022/11/11 00:06:30;;;;;;;8.05;4.30;;;;;;;;;;5040694;28;20465;-52
2022/11/11 00:09:00;;;;;;;9.68;4.55;;;;;;;;;;5035642;28;20088;-55
2022/11/11 00:11:28;;;;;;;9.63;4.10;;;;;;;;;;5047164;28;20114;-54
2022/11/11 00:13:55;;;;;;;18.08;6.40;;;;;;;;;;5054379;28;20053;-54
2022/11/11 00:16:23;;;;;;;13.93;4.82;;;;;;;;;;5038695;28;20132;-53
2022/11/11 00:27:20;;;;;;;8.95;5.28;;;;;;;;;;5044800;28;20171;-54
2022/11/11 00:29:50;;;;;;;13.82;4.15;;;;;;;;;;5044994;28;20410;-54
2022/11/11 00:32:29;;;;;;;11.57;5.68;;;;;;;;;;5034621;28;20484;-54
2022/11/11 00:37:47;;;;;;;12.23;5.75;;;;;;;;;;5034094;28;20048;-54
2022/11/11 00:40:15;;;;;;;10.55;4.97;;;;;;;;;;5036300;28;20104;-54
2022/11/11 00:42:43;;;;;;;11.02;5.00;;;;;;;;;;5051210;28;20052;-54
2022/11/11 00:45:10;;;;;;;14.80;5.35;;;;;;;;;;5039368;28;20068;-54
2022/11/11 00:53:12;;;;;;;10.38;4.88;;;;;;;;;;5039654;28;20122;-54
2022/11/11 00:55:41;;;;;;;13.18;5.95;;;;;;;;;;5047533;28;20139;-54
2022/11/11 00:58:12;;;;;;;8.45;4.22;;;;;;;;;;5033375;28;20133;-55
2022/11/11 01:00:39;;;;;;;10.73;4.75;;;;;;;;;;5032501;28;20124;-54
2022/11/11 01:03:07;;;;;;;9.07;4.40;;;;;;;;;;5047123;28;20132;-54
2022/11/11 01:05:34;;;;;;;14.07;5.28;;;;;;;;;;5045084;28;20049;-54
2022/11/11 01:08:02;;;;;;;11.38;4.63;;;;;;;;;;5033282;28;20053;-52
2022/11/11 01:10:42;;;;;;;9.93;4.82;;;;;;;;;;5037846;28;20053;-54
2022/11/11 01:13:21;;;;;;;7.60;4.15;;;;;;;;;;5037006;28;20049;-53
2022/11/11 01:15:58;;;;;;;9.55;4.32;;;;;;;;;;5033385;28;20057;-54
2022/11/11 01:18:28;;;;;;;8.30;4.40;;;;;;;;;;5033389;28;20045;-53
2022/11/11 01:20:59;;;;;;;10.35;4.63;;;;;;;;;;5032997;28;20068;-53
2022/11/11 01:23:28;;;;;;;12.23;4.80;;;;;;;;;;5046450;28;20119;-54
2022/11/11 01:25:55;;;;;;;11.07;5.22;;;;;;;;;;5048524;28;20053;-55
2022/11/11 01:28:35;;;;;;;11.07;4.57;;;;;;;;;;5049275;28;20120;-53
2022/11/11 01:31:04;;;;;;;7.35;4.70;;;;;;;;;;5045159;28;20075;-55
2022/11/11 01:33:32;;;;;;;11.50;4.68;;;;;;;;;;5047173;28;20168;-54
2022/11/11 01:36:06;;;;;;;7.32;4.63;;;;;;;;;;5050571;28;20049;-54
2022/11/11 01:38:35;;;;;;;10.20;4.50;;;;;;;;;;5032817;28;20393;-53
2022/11/11 01:41:31;;;;;;;10.23;5.40;;;;;;;;;;5039813;28;20566;-53
2022/11/11 01:44:14;;;;;;;8.93;5.00;;;;;;;;;;5041523;28;20050;-54
2022/11/11 01:46:43;;;;;;;7.43;4.70;;;;;;;;;;5036550;28;20048;-54
2022/11/11 01:49:17;;;;;;;13.50;5.05;;;;;;;;;;5041528;28;20147;-54
2022/11/11 01:51:47;;;;;;;10.35;4.20;;;;;;;;;;5049188;28;20041;-54
2022/11/11 01:54:18;;;;;;;9.90;4.25;;;;;;;;;;5037762;28;20136;-53
2022/11/11 01:56:47;;;;;;;8.27;4.50;;;;;;;;;;5044710;28;20049;-54
2022/11/11 01:59:23;;;;;;;12.73;4.60;;;;;;;;;;5038939;28;20040;-54
2022/11/11 02:01:52;;;;;;;8.48;4.55;;;;;;;;;;5042107;28;20049;-54
2022/11/11 02:07:15;;;;;;;8.05;3.88;;;;;;;;;;5045506;28;20103;-52
2022/11/11 02:09:43;;;;;;;11.88;4.40;;;;;;;;;;5044903;28;20111;-53
2022/11/11 02:14:59;;;;;;;11.75;4.28;;;;;;;;;;5033728;28;20120;-54
2022/11/11 02:17:28;;;;;;;8.70;3.97;;;;;;;;;;5044680;28;20045;-55
2022/11/11 02:20:05;;;;;;;8.98;4.40;;;;;;;;;;5051426;28;20160;-54
2022/11/11 02:22:37;;;;;;;8.32;4.53;;;;;;;;;;5041009;28;20519;-54
2022/11/11 02:25:23;;;;;;;8.65;4.15;;;;;;;;;;5044490;28;20132;-54
2022/11/11 02:27:53;;;;;;;11.18;4.25;;;;;;;;;;5038034;28;20529;-53
2022/11/11 02:30:20;;;;;;;8.93;4.78;;;;;;;;;;5044044;28;20060;-54
2022/11/11 02:32:49;;;;;;;11.18;4.55;;;;;;;;;;5039738;28;20149;-51
2022/11/11 02:35:18;;;;;;;11.10;4.47;;;;;;;;;;5035381;28;20434;-53
2022/11/11 02:37:48;;;;;;;11.35;3.63;;;;;;;;;;5045659;28;20111;-54
2022/11/11 02:40:20;;;;;;;11.60;4.35;;;;;;;;;;5047035;28;20049;-54
2022/11/11 02:42:46;;;;;;;10.20;4.00;;;;;;;;;;5032465;28;20060;-53
2022/11/11 02:45:16;;;;;;;9.45;4.03;;;;;;;;;;5032315;28;20046;-54
2022/11/11 02:47:44;;;;;;;8.63;4.55;;;;;;;;;;5047245;28;20081;-55
2022/11/11 02:50:12;;;;;;;7.72;4.47;;;;;;;;;;5037360;28;20054;-52
2022/11/11 02:52:42;;;;;;;9.25;4.32;;;;;;;;;;5052882;28;20423;-53
2022/11/11 02:55:10;;;;;;;9.40;3.72;;;;;;;;;;5041720;28;20058;-53
2022/11/11 02:57:40;;;;;;;9.40;3.95;;;;;;;;;;5051440;28;20442;-51
2022/11/11 03:00:11;;;;;;;15.10;4.13;;;;;;;;;;5035495;28;20156;-51
2022/11/11 03:02:41;;;;;;;10.15;3.90;;;;;;;;;;5043826;28;20063;-51
2022/11/11 03:05:11;;;;;;;9.60;3.60;;;;;;;;;;5037824;28;20458;-50
2022/11/11 03:07:39;;;;;;;8.43;3.83;;;;;;;;;;5046782;28;20106;-53
2022/11/11 03:10:07;;;;;;;8.30;3.40;;;;;;;;;;5050383;28;20128;-50
2022/11/11 03:12:36;;;;;;;7.47;3.20;;;;;;;;;;5041231;28;20053;-53
2022/11/11 03:15:14;;;;;;;7.53;3.38;;;;;;;;;;5041892;28;20061;-52
2022/11/11 03:17:41;;;;;;;6.47;3.08;;;;;;;;;;5054339;28;20045;-53
2022/11/11 03:23:04;;;;;;;6.85;3.00;;;;;;;;;;5047825;28;20072;-55
2022/11/11 03:25:36;;;;;;;8.90;3.17;;;;;;;;;;5036137;28;20450;-52
2022/11/11 03:28:04;;;;;;;9.95;3.67;;;;;;;;;;5042630;28;20057;-52
2022/11/11 03:30:41;;;;;;;8.02;2.92;;;;;;;;;;5045075;28;20061;-54
2022/11/11 03:33:09;;;;;;;9.50;3.58;;;;;;;;;;5035152;28;20119;-55
2022/11/11 03:35:37;;;;;;;10.82;3.30;;;;;;;;;;5037415;28;20429;-51
2022/11/11 03:38:23;;;;;;;7.07;3.35;;;;;;;;;;5046951;28;20052;-54
2022/11/11 03:40:52;;;;;;;8.35;3.08;;;;;;;;;;5038151;28;20042;-53
2022/11/11 03:43:20;;;;;;;6.50;2.67;;;;;;;;;;5045251;28;20053;-55
2022/11/11 03:46:00;;;;;;;10.30;3.40;;;;;;;;;;5036923;28;20520;-54
2022/11/11 03:48:37;;;;;;;8.07;3.28;;;;;;;;;;5035052;28;20089;-55
2022/11/11 03:51:08;;;;;;;7.22;2.95;;;;;;;;;;5035497;28;20462;-53
2022/11/11 03:53:38;;;;;;;7.97;3.08;;;;;;;;;;5048051;28;20171;-53
2022/11/11 03:56:05;;;;;;;8.52;3.42;;;;;;;;;;5045825;28;20053;-53
2022/11/11 03:58:34;;;;;;;7.68;4.22;;;;;;;;;;5047325;28;20523;-54
2022/11/11 04:12:11;;;;;;;10.10;3.78;;;;;;;;;;5040701;28;20131;-55
2022/11/11 04:17:27;;;;;;;8.00;3.63;;;;;;;;;;5034926;28;20056;-55
2022/11/11 04:22:39;;;;;;;6.63;3.10;;;;;;;;;;5050454;28;20055;-52
2022/11/11 04:29:27;;;;;;;6.27;3.30;;;;;;;;;;5039010;28;20055;-55
2022/11/11 04:30:38;;;;;;;9.65;3.42;;;;;;;;;;5044127;28;20068;-54
2022/11/11 04:33:08;;;;;;;10.23;3.78;;;;;;;;;;5049787;28;20049;-55
2022/11/11 04:35:38;;;;;;;9.50;3.70;;;;;;;;;;5050420;28;20484;-52
2022/11/11 04:45:26;;;;;;;10.52;3.78;;;;;;;;;;5053294;28;20060;-55
2022/11/11 04:46:21;;;;;;;6.15;3.33;;;;;;;;;;5032948;28;20612;-52
2022/11/11 04:48:50;;;;;;;7.38;3.65;;;;;;;;;;5049443;28;20051;-54
2022/11/11 04:52:24;;;;;;;9.60;3.35;;;;;;;;;;5043736;28;20053;-54
2022/11/11 04:54:08;;;;;;;8.07;3.67;;;;;;;;;;5046841;28;20150;-54
2022/11/11 04:56:50;;;;;;;8.82;3.45;;;;;;;;;;5040176;28;20049;-53
2022/11/11 04:59:18;;;;;;;5.35;3.00;;;;;;;;;;5053334;28;20040;-55
2022/11/11 05:04:36;;;;;;;6.03;3.00;;;;;;;;;;5046145;28;20055;-55
2022/11/11 05:09:49;;;;;;;10.30;3.00;;;;;;;;;;5033010;28;20060;-54
2022/11/11 05:12:17;;;;;;;8.38;3.00;;;;;;;;;;5038555;28;20435;-55
2022/11/11 05:23:02;;;;;;;10.27;3.38;;;;;;;;;;5038487;28;20060;-55
2022/11/11 05:25:32;;;;;;;8.95;3.58;;;;;;;;;;5032322;28;20053;-54
2022/11/11 05:28:03;;;;;;;10.40;3.65;;;;;;;;;;5033194;28;20049;-55
2022/11/11 05:30:34;;;;;;;6.20;3.45;;;;;;;;;;5039728;28;20060;-56
2022/11/11 05:33:02;;;;;;;7.63;3.47;;;;;;;;;;5040671;28;20785;-54
2022/11/11 05:35:44;;;;;;;12.07;3.50;;;;;;;;;;5044263;28;20661;-52
2022/11/11 05:38:25;;;;;;;11.38;3.40;;;;;;;;;;5033236;28;20139;-53
2022/11/11 05:41:02;;;;;;;9.55;2.90;;;;;;;;;;5045837;28;20049;-54
2022/11/11 05:43:28;;;;;;;6.47;3.30;;;;;;;;;;5033030;28;20084;-53
2022/11/11 05:45:58;;;;;;;6.70;3.10;;;;;;;;;;5032436;28;20172;-53
2022/11/11 05:48:26;;;;;;;6.03;2.63;;;;;;;;;;5045976;28;20142;-54
2022/11/11 05:51:26;;;;;;;5.55;2.70;;;;;;;;;;5051401;28;20450;-54
2022/11/11 05:53:57;;;;;;;11.40;3.20;;;;;;;;;;5041401;28;20049;-54
2022/11/11 05:56:23;;;;;;;8.88;3.42;;;;;;;;;;5044116;28;20499;-53
2022/11/11 05:58:50;;;;;;;10.00;3.17;;;;;;;;;;5033881;28;20140;-54
2022/11/11 06:01:19;;;;;;;7.70;2.70;;;;;;;;;;5032806;28;20133;-51
2022/11/11 06:03:47;;;;;;;12.50;2.42;;;;;;;;;;5032516;28;20378;-55
2022/11/11 06:06:25;;;;;;;8.35;2.80;;;;;;;;;;5035914;28;20148;-54
2022/11/11 06:08:55;;;;;;;8.88;2.78;;;;;;;;;;5043921;28;20061;-55
2022/11/11 06:11:24;;;;;;;5.65;2.58;;;;;;;;;;5037477;28;20081;-53
2022/11/11 06:13:52;;;;;;;6.22;2.55;;;;;;;;;;5032557;28;20644;-55
2022/11/11 06:16:21;;;;;;;8.50;3.00;;;;;;;;;;5045188;28;20137;-54
2022/11/11 06:18:49;;;;;;;7.07;2.88;;;;;;;;;;5033383;28;20132;-55
2022/11/11 06:21:25;;;;;;;7.15;2.35;;;;;;;;;;5034461;28;20140;-54
2022/11/11 06:23:55;;;;;;;6.57;2.88;;;;;;;;;;5039105;28;20146;-55
2022/11/11 06:26:24;;;;;;;7.00;2.90;;;;;;;;;;5032409;28;20081;-55
2022/11/11 06:29:00;;;;;;;8.35;2.83;;;;;;;;;;5031880;28;20517;-52
2022/11/11 06:31:26;;;;;;;9.68;2.53;;;;;;;;;;5044368;28;20059;-51
2022/11/11 06:33:57;;;;;;;5.22;2.75;;;;;;;;;;5040754;28;20132;-53
2022/11/11 06:36:26;;;;;;;8.70;2.80;;;;;;;;;;5050523;28;20459;-53
2022/11/11 06:38:54;;;;;;;8.93;2.53;;;;;;;;;;5044009;28;20059;-54
2022/11/11 06:41:23;;;;;;;8.20;2.75;;;;;;;;;;5036301;28;20077;-53
2022/11/11 06:43:52;;;;;;;6.38;2.60;;;;;;;;;;5049170;28;20049;-53
2022/11/11 06:46:22;;;;;;;6.30;2.50;;;;;;;;;;5039760;28;20051;-53
2022/11/11 06:48:50;;;;;;;4.38;2.50;;;;;;;;;;5055093;28;20091;-54
2022/11/11 06:51:20;;;;;;;11.88;3.40;;;;;;;;;;5045729;28;20092;-53
2022/11/11 06:54:02;;;;;;;5.25;2.60;;;;;;;;;;5045040;28;20063;-51
2022/11/11 06:56:30;;;;;;;7.20;2.75;;;;;;;;;;5055558;28;20052;-53
2022/11/11 06:58:59;;;;;;;7.00;2.55;;;;;;;;;;5055040;28;20137;-53
2022/11/11 07:01:26;;;;;;;10.63;3.05;;;;;;;;;;5054366;28;20049;-54
2022/11/11 07:03:55;;;;;;;4.60;2.65;;;;;;;;;;5047741;28;20061;-53
2022/11/11 07:06:26;;;;;;;6.43;2.80;;;;;;;;;;5038800;28;20115;-52
2022/11/11 07:08:55;;;;;;;5.15;2.42;;;;;;;;;;5035792;28;20050;-53
2022/11/11 07:11:26;;;;;;;9.68;2.78;;;;;;;;;;5043099;28;20533;-52
2022/11/11 07:13:53;;;;;;;7.22;2.80;;;;;;;;;;5055611;28;20059;-53
2022/11/11 07:16:20;;;;;;;12.77;2.65;;;;;;;;;;5044461;28;20128;-53
2022/11/11 07:18:47;;;;;;;5.22;2.75;;;;;;;;;;5037780;28;20041;-54
2022/11/11 07:21:17;;;;;;;6.63;2.53;;;;;;;;;;5038238;28;20144;-50
2022/11/11 07:23:47;;;;;;;10.02;3.13;;;;;;;;;;5047237;28;20057;-50
2022/11/11 07:26:17;;;;;;;6.45;2.42;;;;;;;;;;5040500;28;20394;-52
2022/11/11 07:28:47;;;;;;;6.68;2.53;;;;;;;;;;5047933;28;20180;-51
2022/11/11 07:31:16;;;;;;;6.50;2.63;;;;;;;;;;5043749;28;20060;-51
2022/11/11 07:33:43;;;;;;;7.13;3.28;;;;;;;;;;5043342;28;20064;-50
2022/11/11 07:36:19;;;;;;;10.05;3.20;;;;;;;;;;5042163;28;20366;-50
2022/11/11 07:38:47;;;;;;;7.03;2.60;;;;;;;;;;5039953;28;20052;-49
2022/11/11 07:41:16;;;;;;;7.05;2.85;;;;;;;;;;5042452;28;20048;-49
2022/11/11 07:43:47;;;;;;;8.95;3.42;;;;;;;;;;5049014;28;20418;-50
2022/11/11 07:46:16;;;;;;;5.05;2.72;;;;;;;;;;5043736;28;20057;-49
2022/11/11 07:48:45;;;;;;;8.45;2.88;;;;;;;;;;5046967;28;20102;-49
2022/11/11 07:51:13;;;;;;;6.20;3.00;;;;;;;;;;5053215;28;20049;-50
2022/11/11 07:53:40;;;;;;;6.10;2.60;;;;;;;;;;5045093;28;20466;-52
2022/11/11 07:56:10;;;;;;;7.25;2.72;;;;;;;;;;5047028;28;20148;-50
2022/11/11 07:58:39;;;;;;;7.90;2.50;;;;;;;;;;5040567;28;20091;-52
2022/11/11 08:01:09;;;;;;;7.57;3.05;;;;;;;;;;5039894;28;20569;-50
2022/11/11 08:03:48;;;;;;;7.85;3.10;;;;;;;;;;5037983;28;20582;-49
2022/11/11 08:06:17;;;;;;;6.13;2.50;;;;;;;;;;5052829;28;20052;-53
2022/11/11 08:08:47;;;;;;;9.57;2.92;;;;;;;;;;5046555;28;20136;-49
2022/11/11 08:11:15;;;;;;;7.95;2.78;;;;;;;;;;5046077;28;20059;-51
2022/11/11 08:13:44;;;;;;;8.93;2.70;;;;;;;;;;5037907;28;20049;-51
2022/11/11 08:16:14;;;;;;;4.43;2.35;;;;;;;;;;5044552;28;20128;-51
2022/11/11 08:18:42;;;;;;;7.63;2.85;;;;;;;;;;5047455;28;20098;-49
2022/11/11 08:21:10;;;;;;;7.75;3.00;;;;;;;;;;5039593;28;20134;-54
2022/11/11 08:23:37;;;;;;;7.30;2.65;;;;;;;;;;5044541;28;20128;-50
2022/11/11 08:26:06;;;;;;;7.15;3.03;;;;;;;;;;5046162;28;20140;-53
2022/11/11 08:28:35;;;;;;;7.90;3.03;;;;;;;;;;5042717;28;20110;-51
2022/11/11 08:31:04;;;;;;;7.35;2.67;;;;;;;;;;5042590;28;20052;-51
2022/11/11 08:33:32;;;;;;;5.25;2.47;;;;;;;;;;5046620;28;20385;-52
2022/11/11 08:36:01;;;;;;;6.57;2.45;;;;;;;;;;5043209;28;20050;-47
2022/11/11 08:38:29;;;;;;;6.72;2.40;;;;;;;;;;5041753;28;20088;-49
2022/11/11 08:40:59;;;;;;;6.18;2.28;;;;;;;;;;5042339;28;20131;-51
2022/11/11 08:43:31;;;;;;;6.00;2.50;;;;;;;;;;5043471;28;20136;-51
2022/11/11 08:46:02;;;;;;;12.45;2.92;;;;;;;;;;5037008;28;20156;-52
2022/11/11 08:48:41;;;;;;;4.18;2.40;;;;;;;;;;5045915;28;20049;-48
2022/11/11 08:51:10;;;;;;;6.03;2.50;;;;;;;;;;5039494;28;20045;-49
2022/11/11 08:53:37;;;;;;;5.25;2.63;;;;;;;;;;5043471;28;20037;-49
2022/11/11 08:56:08;;;;;;;9.20;3.35;;;;;;;;;;5034393;28;20152;-51
2022/11/11 08:58:35;;;;;;;6.55;2.65;;;;;;;;;;5045325;28;20431;-49
2022/11/11 09:01:03;;;;;;;9.25;3.15;;;;;;;;;;5051608;28;20411;-51
2022/11/11 09:03:46;;;;;;;6.47;2.75;;;;;;;;;;5038543;28;20057;-52
2022/11/11 09:06:17;;;;;;;5.05;2.47;;;;;;;;;;5044209;28;20052;-51
2022/11/11 09:08:47;;;;;;;7.40;2.55;;;;;;;;;;5042136;28;20046;-53
2022/11/11 09:11:15;;;;;;;6.95;3.00;;;;;;;;;;5044010;28;20068;-49
2022/11/11 09:13:41;;;;;;;6.88;2.65;;;;;;;;;;5045194;28;20053;-48
2022/11/11 09:16:09;;;;;;;5.82;2.50;;;;;;;;;;5049821;28;20131;-53
2022/11/11 09:18:39;;;;;;;23.35;4.03;;;;;;;;;;5052421;28;20124;-50
2022/11/11 09:23:48;;;;;;;5.28;3.10;;;;;;;;;;5051402;28;20053;-53
2022/11/11 09:26:18;;;;;;;8.57;3.10;;;;;;;;;;5051573;28;20056;-46
2022/11/11 09:28:48;;;;;;;5.57;2.65;;;;;;;;;;5042152;28;20056;-47
2022/11/11 09:31:16;;;;;;;7.45;2.92;;;;;;;;;;5038931;28;20470;-47
2022/11/11 09:33:46;;;;;;;6.60;2.88;;;;;;;;;;5045330;28;20055;-49
2022/11/11 09:36:14;;;;;;;6.90;2.78;;;;;;;;;;5044374;28;20135;-49
2022/11/11 09:38:43;;;;;;;6.38;2.88;;;;;;;;;;5042220;28;20111;-49
2022/11/11 09:41:21;;;;;;;9.75;3.00;;;;;;;;;;5052021;28;20049;-50
2022/11/11 09:43:53;;;;;;;8.52;3.60;;;;;;;;;;5045717;28;20555;-49
2022/11/11 09:46:35;;;;;;;7.97;3.15;;;;;;;;;;5045390;28;20049;-51
2022/11/11 09:49:22;;;;;;;8.63;3.13;;;;;;;;;;5050665;28;20045;-50
2022/11/11 09:52:09;;;;;;;5.65;2.97;;;;;;;;;;5017454;28;20136;-51
2022/11/11 09:54:40;;;;;;;7.15;3.17;;;;;;;;;;5041586;28;20145;-49
2022/11/11 09:57:14;;;;;;;5.95;3.03;;;;;;;;;;5038032;28;20064;-54
2022/11/11 09:59:46;;;;;;;6.38;2.97;;;;;;;;;;5048188;28;20055;-54
2022/11/11 10:02:20;;;;;;;8.18;3.65;;;;;;;;;;5041859;28;20484;-51
2022/11/11 10:04:52;;;;;;;10.02;3.17;;;;;;;;;;5050047;28;20063;-51
2022/11/11 10:07:25;;;;;;;9.27;3.47;;;;;;;;;;5048408;28;20053;-51
2022/11/11 10:09:56;;;;;;;8.00;3.05;;;;;;;;;;5034046;28;20136;-49
2022/11/11 10:12:37;;;;;;;7.13;2.75;;;;;;;;;;5043280;28;20111;-50
2022/11/11 10:15:13;;;;;;;5.30;2.63;;;;;;;;;;5047605;28;20053;-50
2022/11/11 10:17:49;;;;;;;9.57;2.97;;;;;;;;;;5049457;28;20056;-50
2022/11/11 10:20:23;;;;;;;8.98;2.90;;;;;;;;;;5043957;28;20049;-50
2022/11/11 10:22:56;;;;;;;7.93;3.05;;;;;;;;;;5049777;28;20044;-50
2022/11/11 10:25:32;;;;;;;12.43;3.83;;;;;;;;;;5050803;28;20541;-51
2022/11/11 10:28:02;;;;;;;9.82;3.30;;;;;;;;;;5042530;28;20049;-50
2022/11/11 10:30:31;;;;;;;8.25;3.38;;;;;;;;;;5040097;28;20537;-48
2022/11/11 10:33:07;;;;;;;10.93;4.20;;;;;;;;;;5047459;28;20106;-49
2022/11/11 10:35:37;;;;;;;7.75;2.83;;;;;;;;;;5048516;28;20053;-49
2022/11/11 10:38:19;;;;;;;8.82;3.33;;;;;;;;;;5040347;28;20096;-48
2022/11/11 10:40:56;;;;;;;9.82;3.67;;;;;;;;;;5047372;28;20040;-49
2022/11/11 10:43:26;;;;;;;9.48;3.25;;;;;;;;;;5034514;28;20046;-50
2022/11/11 10:46:06;;;;;;;9.07;3.75;;;;;;;;;;5037071;28;20144;-49
2022/11/11 10:48:41;;;;;;;6.65;3.15;;;;;;;;;;5034062;28;20508;-50
2022/11/11 10:51:09;;;;;;;9.32;2.95;;;;;;;;;;5036254;28;20466;-50
2022/11/11 10:53:40;;;;;;;8.40;3.30;;;;;;;;;;5046635;28;20527;-51
2022/11/11 10:56:14;;;;;;;10.55;3.60;;;;;;;;;;5036698;28;20042;-53
2022/11/11 10:58:49;;;;;;;16.83;5.55;;;;;;;;;;5043473;28;20096;-50
2022/11/11 11:01:20;;;;;;;11.18;2.97;;;;;;;;;;5041783;28;20034;-53
2022/11/11 11:03:49;;;;;;;15.98;8.05;;;;;;;;;;5055702;28;20144;-50
2022/11/11 11:06:20;;;;;;;14.07;5.95;;;;;;;;;;5045820;28;20049;-50
2022/11/11 11:08:53;;;;;;;9.50;3.33;;;;;;;;;;5042713;28;20548;-50
2022/11/11 11:11:23;;;;;;;7.80;2.95;;;;;;;;;;5042858;28;20071;-51
2022/11/11 11:13:52;;;;;;;11.68;4.72;;;;;;;;;;5039327;28;20764;-52
2022/11/11 11:16:24;;;;;;;14.15;5.57;;;;;;;;;;5043851;28;20132;-51
2022/11/11 11:19:09;;;;;;;10.68;4.38;;;;;;;;;;5039711;28;20053;-53
2022/11/11 11:21:50;;;;;;;13.73;4.40;;;;;;;;;;5038857;28;20768;-52
2022/11/11 11:24:22;;;;;;;20.25;6.60;;;;;;;;;;5045716;28;20173;-50
2022/11/11 11:26:55;;;;;;;25.92;12.73;;;;;;;;;;5047876;28;20136;-49
2022/11/11 11:29:27;;;;;;;21.77;8.68;;;;;;;;;;5052462;28;20485;-54
2022/11/11 11:31:56;;;;;;;21.65;10.07;;;;;;;;;;5051555;28;20131;-50
2022/11/11 11:34:39;;;;;;;18.88;7.90;;;;;;;;;;5053465;28;20057;-53
2022/11/11 11:37:06;;;;;;;14.05;6.35;;;;;;;;;;5052515;28;20163;-53
2022/11/11 11:39:40;;;;;;;12.07;4.75;;;;;;;;;;5052730;28;20140;-53
2022/11/11 11:42:29;;;;;;;19.60;9.15;;;;;;;;;;5052103;28;20091;-52
2022/11/11 11:44:59;;;;;;;45.33;19.25;;;;;;;;;;5052067;28;20056;-50
2022/11/11 11:47:37;;;;;;;26.42;10.95;;;;;;;;;;5052415;28;20060;-49
2022/11/11 11:50:15;;;;;;;26.50;10.82;;;;;;;;;;5051425;28;20519;-50
2022/11/11 11:52:48;;;;;;;13.70;7.65;;;;;;;;;;5053507;28;20140;-50
2022/11/11 11:55:25;;;;;;;23.90;10.68;;;;;;;;;;5052398;28;20517;-50
2022/11/11 11:58:03;;;;;;;35.60;15.00;;;;;;;;;;5053260;28;20056;-51
2022/11/11 12:00:35;;;;;;;24.23;10.23;;;;;;;;;;5052692;28;20136;-51
2022/11/11 12:03:21;;;;;;;24.85;9.93;;;;;;;;;;5049271;28;20137;-49
2022/11/11 12:05:49;;;;;;;;;;;;;;;;;;5043691;28;20128;-50
2022/11/11 12:08:24;;;;;;;26.55;10.68;;;;;;;;;;5052163;28;20657;-53
2022/11/11 12:10:57;;;;;;;18.83;7.70;;;;;;;;;;5051894;28;20132;-50
2022/11/11 12:13:41;;;;;;;38.38;13.55;;;;;;;;;;5050238;28;20155;-50
2022/11/11 12:16:20;;;;;;;38.42;14.38;;;;;;;;;;5045161;28;20461;-50
2022/11/11 12:19:04;;;;;;;13.10;5.78;;;;;;;;;;5050497;28;20084;-50
2022/11/11 12:21:38;;;;;;;12.43;4.65;;;;;;;;;;5048959;28;20173;-50
2022/11/11 12:24:14;;;;;;;12.00;4.68;;;;;;;;;;5055140;28;20084;-51
2022/11/11 12:26:49;;;;;;;8.93;3.95;;;;;;;;;;5051752;28;20098;-49
2022/11/11 12:29:33;;;;;;;8.98;3.97;;;;;;;;;;5052993;28;20080;-50
2022/11/11 12:32:16;;;;;;;9.80;5.78;;;;;;;;;;5051192;28;20063;-53
2022/11/11 12:35:04;;;;;;;10.15;4.70;;;;;;;;;;5043520;28;20061;-50
2022/11/11 12:37:36;;;;;;;9.52;3.80;;;;;;;;;;5051097;28;21270;-51
2022/11/11 12:40:16;;;;;;;8.00;3.60;;;;;;;;;;5054149;28;20110;-51
2022/11/11 12:42:47;;;;;;;8.30;3.70;;;;;;;;;;5049803;28;20059;-50
2022/11/11 12:45:19;;;;;;;12.40;4.30;;;;;;;;;;5044684;28;20072;-51
2022/11/11 12:47:50;;;;;;;7.20;3.33;;;;;;;;;;5050426;28;20131;-51
2022/11/11 12:50:25;;;;;;;7.63;3.78;;;;;;;;;;5051353;28;20055;-50
2022/11/11 12:53:22;;;;;;;9.77;4.00;;;;;;;;;;5050831;28;20068;-50
2022/11/11 12:55:59;;;;;;;7.15;3.63;;;;;;;;;;5051015;28;20378;-50
2022/11/11 12:58:42;;;;;;;6.18;3.83;;;;;;;;;;5049588;28;20048;-50
2022/11/11 13:01:15;;;;;;;9.27;4.03;;;;;;;;;;5052341;28;20124;-52
2022/11/11 13:03:55;;;;;;;9.25;3.55;;;;;;;;;;5049008;28;20468;-50
2022/11/11 13:06:42;;;;;;;9.40;3.88;;;;;;;;;;5047530;28;20057;-50
2022/11/11 13:09:29;;;;;;;14.75;3.75;;;;;;;;;;5016599;28;20167;-52
2022/11/11 13:12:01;;;;;;;8.20;3.53;;;;;;;;;;5042693;28;20470;-50
2022/11/11 13:14:35;;;;;;;9.75;3.95;;;;;;;;;;5043953;28;20045;-49
2022/11/11 13:17:11;;;;;;;13.15;3.92;;;;;;;;;;5034646;28;20072;-49
2022/11/11 13:19:41;;;;;;;7.00;3.38;;;;;;;;;;5035854;28;20060;-49
2022/11/11 13:22:13;;;;;;;7.78;4.20;;;;;;;;;;5037202;28;20049;-49
2022/11/11 13:24:42;;;;;;;10.63;3.97;;;;;;;;;;5042487;28;20484;-50
2022/11/11 13:27:14;;;;;;;7.45;3.47;;;;;;;;;;5038359;28;20049;-51
2022/11/11 13:30:03;;;;;;;7.03;3.15;;;;;;;;;;5037124;28;20120;-50
2022/11/11 13:32:46;;;;;;;7.70;3.75;;;;;;;;;;5038063;28;20152;-54
2022/11/11 13:35:22;;;;;;;7.82;3.40;;;;;;;;;;5034657;28;20114;-52
2022/11/11 13:37:50;;;;;;;7.82;3.60;;;;;;;;;;5046456;28;20649;-51
2022/11/11 13:40:39;;;;;;;10.55;3.70;;;;;;;;;;5049952;28;20053;-49
2022/11/11 13:43:16;;;;;;;5.95;3.55;;;;;;;;;;5031309;28;20064;-50
2022/11/11 13:45:50;;;;;;;8.85;3.70;;;;;;;;;;5043334;28;20172;-50
2022/11/11 13:48:19;;;;;;;9.55;4.25;;;;;;;;;;5049722;28;20833;-52
2022/11/11 13:50:48;;;;;;;12.32;3.88;;;;;;;;;;5049053;28;20051;-50
2022/11/11 13:53:24;;;;;;;8.63;3.97;;;;;;;;;;5043886;28;20060;-50
2022/11/11 13:55:53;;;;;;;10.65;4.45;;;;;;;;;;5045085;28;20132;-50
2022/11/11 13:58:23;;;;;;;7.78;3.80;;;;;;;;;;5049697;28;20132;-50
2022/11/11 14:00:58;;;;;;;7.65;4.60;;;;;;;;;;5043951;28;20128;-51
2022/11/11 14:03:34;;;;;;;9.88;3.33;;;;;;;;;;5038493;28;20099;-49
2022/11/11 14:06:20;;;;;;;8.65;4.30;;;;;;;;;;5038239;28;20049;-54
2022/11/11 14:08:55;;;;;;;8.40;4.28;;;;;;;;;;5036531;28;20136;-53
2022/11/11 14:11:23;;;;;;;;;;;;;;;;;;5042541;28;20127;-54
2022/11/11 14:13:51;;;;;;;7.10;3.53;;;;;;;;;;5043945;28;19924;-50
2022/11/11 14:16:34;;;;;;;8.77;4.18;;;;;;;;;;5046768;28;20140;-50
2022/11/11 14:19:29;;;;;;;11.13;4.10;;;;;;;;;;5039130;28;20052;-51
2022/11/11 14:21:57;;;;;;;9.57;3.53;;;;;;;;;;5047352;28;20454;-53
2022/11/11 14:24:36;;;;;;;7.68;3.97;;;;;;;;;;5046898;28;20298;-55
2022/11/11 14:27:06;;;;;;;7.03;3.35;;;;;;;;;;5039094;28;20053;-50
2022/11/11 14:29:37;;;;;;;8.10;4.22;;;;;;;;;;5047828;28;20134;-50
2022/11/11 14:32:22;;;;;;;12.65;4.32;;;;;;;;;;5044411;28;20049;-50
2022/11/11 14:35:06;;;;;;;10.30;4.35;;;;;;;;;;5046733;28;20056;-51
2022/11/11 14:37:43;;;;;;;6.47;3.40;;;;;;;;;;5045547;28;20148;-49
2022/11/11 14:40:24;;;;;;;11.13;4.25;;;;;;;;;;5042463;28;20057;-50
2022/11/11 14:42:54;;;;;;;8.30;4.00;;;;;;;;;;5038268;28;20435;-49
2022/11/11 14:45:40;;;;;;;9.98;4.82;;;;;;;;;;5051186;28;20132;-49
2022/11/11 14:48:26;;;;;;;11.57;4.80;;;;;;;;;;5051321;28;20067;-49
2022/11/11 14:50:54;;;;;;;10.75;4.50;;;;;;;;;;5049350;28;20074;-53
2022/11/11 14:53:25;;;;;;;11.10;4.47;;;;;;;;;;5050899;28;20110;-49
2022/11/11 14:56:02;;;;;;;12.98;6.88;;;;;;;;;;5043435;28;20067;-49
2022/11/11 14:58:35;;;;;;;17.27;6.95;;;;;;;;;;5041704;28;20128;-50
2022/11/11 15:01:11;;;;;;;14.38;4.97;;;;;;;;;;5051369;28;20132;-50
2022/11/11 15:03:43;;;;;;;14.48;5.85;;;;;;;;;;5043506;28;20111;-51
2022/11/11 15:06:14;;;;;;;9.00;4.90;;;;;;;;;;5047983;28;20061;-50
2022/11/11 15:08:49;;;;;;;12.68;5.03;;;;;;;;;;5055351;28;20091;-50
2022/11/11 15:11:29;;;;;;;14.97;5.77;;;;;;;;;;5047448;28;20132;-50
2022/11/11 15:14:08;;;;;;;14.27;5.78;;;;;;;;;;5054188;28;20291;-50
2022/11/11 15:16:47;;;;;;;15.23;5.50;;;;;;;;;;5052089;28;20052;-51
2022/11/11 15:19:39;;;;;;;11.93;4.43;;;;;;;;;;5049397;28;20076;-52
2022/11/11 15:22:15;;;;;;;17.58;5.80;;;;;;;;;;5047530;28;20136;-54
2022/11/11 15:24:47;;;;;;;15.77;5.65;;;;;;;;;;5052142;28;20053;-51
2022/11/11 15:27:31;;;;;;;13.25;5.38;;;;;;;;;;5052915;28;20052;-51
2022/11/11 15:30:01;;;;;;;12.23;4.63;;;;;;;;;;5047932;28;20093;-54
2022/11/11 15:32:36;;;;;;;11.18;4.43;;;;;;;;;;5054046;28;20057;-51
2022/11/11 15:35:12;;;;;;;10.90;4.75;;;;;;;;;;5054492;28;20135;-55
2022/11/11 15:37:40;;;;;;;13.57;4.57;;;;;;;;;;5057284;28;20140;-52
2022/11/11 15:40:18;;;;;;;10.45;4.68;;;;;;;;;;5049740;28;20131;-51
2022/11/11 15:42:50;;;;;;;10.35;4.18;;;;;;;;;;5050103;28;20128;-49
2022/11/11 15:45:22;;;;;;;12.48;4.75;;;;;;;;;;5048706;28;20049;-50
2022/11/11 15:47:52;;;;;;;9.90;5.68;;;;;;;;;;5047777;28;20479;-52
2022/11/11 15:50:34;;;;;;;9.07;4.70;;;;;;;;;;5043103;28;20524;-53
2022/11/11 15:53:04;;;;;;;14.27;5.07;;;;;;;;;;5042713;28;20053;-51
2022/11/11 15:55:35;;;;;;;13.30;5.43;;;;;;;;;;5040155;28;20558;-52
2022/11/11 15:58:11;;;;;;;13.68;5.10;;;;;;;;;;5048526;28;20045;-49
2022/11/11 16:00:39;;;;;;;12.50;5.22;;;;;;;;;;5044356;28;20041;-51
2022/11/11 16:03:14;;;;;;;11.00;4.20;;;;;;;;;;5041333;28;20481;-49
2022/11/11 16:05:42;;;;;;;9.88;4.85;;;;;;;;;;5037864;28;20051;-49
2022/11/11 16:08:10;;;;;;;11.63;5.07;;;;;;;;;;5043350;28;20136;-51
2022/11/11 16:10:40;;;;;;;13.50;4.70;;;;;;;;;;5049316;28;20049;-49
2022/11/11 16:13:12;;;;;;;11.93;5.25;;;;;;;;;;5028899;28;20046;-51
2022/11/11 16:15:43;;;;;;;12.10;4.72;;;;;;;;;;5032915;28;20458;-50
2022/11/11 16:18:20;;;;;;;13.88;4.88;;;;;;;;;;5028231;28;20144;-49